createdAt,value
2017-12-23T00:00:10.899Z,9.1
2017-12-23T00:01:12.648Z,9.1
2017-12-23T00:02:14.396Z,9.0
2017-12-23T00:03:16.133Z,9.1
2017-12-23T00:04:17.850Z,9.0
2017-12-23T00:05:19.564Z,9.0
2017-12-23T00:06:21.268Z,9.0
2017-12-23T00:07:22.984Z,9.0
2017-12-23T00:08:24.676Z,9.0
2017-12-23T00:09:26.478Z,9.0
2017-12-23T00:10:28.264Z,9.0
2017-12-23T00:11:30.043Z,8.8
2017-12-23T00:12:31.774Z,8.9
2017-12-23T00:13:33.525Z,8.9
2017-12-23T00:14:35.320Z,8.9
2017-12-23T00:15:37.043Z,8.8
2017-12-23T00:16:38.766Z,8.8
2017-12-23T00:17:40.777Z,8.8
2017-12-23T00:18:42.776Z,8.8
2017-12-23T00:19:44.626Z,8.8
2017-12-23T00:20:46.507Z,8.7
2017-12-23T00:21:48.404Z,8.8
2017-12-23T00:22:50.123Z,8.8
2017-12-23T00:23:51.822Z,8.6
2017-12-23T00:24:53.653Z,8.6
2017-12-23T00:25:55.507Z,8.4
2017-12-23T00:26:57.446Z,8.4
2017-12-23T00:27:59.195Z,8.5
2017-12-23T00:29:00.922Z,8.5
2017-12-23T00:30:02.654Z,8.4
2017-12-23T00:31:04.377Z,8.4
2017-12-23T00:32:06.097Z,8.4
2017-12-23T00:33:07.865Z,8.4
2017-12-23T00:34:09.571Z,8.6
2017-12-23T00:35:11.393Z,8.6
2017-12-23T00:36:13.190Z,8.6
2017-12-23T00:37:14.937Z,8.6
2017-12-23T00:38:16.709Z,8.5
2017-12-23T00:39:18.979Z,8.6
2017-12-23T00:40:20.735Z,8.6
2017-12-23T00:41:22.484Z,8.6
2017-12-23T00:42:24.474Z,8.6
2017-12-23T00:43:26.211Z,8.5
2017-12-23T00:44:27.999Z,8.6
2017-12-23T00:45:29.744Z,8.5
2017-12-23T00:46:31.509Z,8.6
2017-12-23T00:47:33.318Z,8.5
2017-12-23T00:48:35.066Z,8.5
2017-12-23T00:49:36.798Z,8.5
2017-12-23T00:50:38.552Z,8.6
2017-12-23T00:51:40.278Z,8.6
2017-12-23T00:52:42.000Z,8.5
2017-12-23T00:53:43.777Z,8.5
2017-12-23T00:54:45.531Z,8.6
2017-12-23T00:55:47.273Z,8.6
2017-12-23T00:56:49.003Z,8.5
2017-12-23T00:57:50.732Z,8.6
2017-12-23T00:58:52.436Z,8.6
2017-12-23T00:59:54.155Z,8.5
2017-12-23T01:00:55.961Z,8.5
2017-12-23T01:01:57.681Z,8.6
2017-12-23T01:02:59.410Z,8.5
2017-12-23T01:04:01.165Z,8.6
2017-12-23T01:05:02.882Z,8.5
2017-12-23T01:06:04.673Z,8.6
2017-12-23T01:07:06.409Z,8.6
2017-12-23T01:08:08.152Z,8.5
2017-12-23T01:09:09.919Z,8.5
2017-12-23T01:10:11.632Z,8.5
2017-12-23T01:11:13.390Z,8.5
2017-12-23T01:12:15.126Z,8.6
2017-12-23T01:13:16.884Z,8.5
2017-12-23T01:14:18.635Z,8.5
2017-12-23T01:15:20.381Z,8.5
2017-12-23T01:16:22.160Z,8.5
2017-12-23T01:17:23.891Z,8.5
2017-12-23T01:18:25.610Z,8.5
2017-12-23T01:19:27.351Z,8.4
2017-12-23T01:20:29.104Z,8.4
2017-12-23T01:21:30.809Z,8.4
2017-12-23T01:22:32.536Z,8.5
2017-12-23T01:23:34.270Z,8.4
2017-12-23T01:24:36.007Z,8.5
2017-12-23T01:25:37.762Z,8.6
2017-12-23T01:26:39.471Z,8.5
2017-12-23T01:27:41.192Z,8.5
2017-12-23T01:28:42.921Z,8.4
2017-12-23T01:29:44.614Z,8.4
2017-12-23T01:30:46.355Z,8.4
2017-12-23T01:31:48.073Z,8.4
2017-12-23T01:32:49.861Z,8.4
2017-12-23T01:33:51.583Z,8.3
2017-12-23T01:34:53.454Z,8.3
2017-12-23T01:35:55.180Z,8.3
2017-12-23T01:36:56.955Z,8.3
2017-12-23T01:37:58.708Z,8.3
2017-12-23T01:39:00.440Z,8.3
2017-12-23T01:40:02.192Z,8.2
2017-12-23T01:41:03.924Z,8.2
2017-12-23T01:42:05.654Z,8.2
2017-12-23T01:43:07.372Z,8.1
2017-12-23T01:44:09.080Z,8.1
2017-12-23T01:45:10.799Z,8.2
2017-12-23T01:46:12.528Z,8.1
2017-12-23T01:47:14.301Z,8.1
2017-12-23T01:48:16.036Z,8.2
2017-12-23T01:49:17.732Z,8.1
2017-12-23T01:50:19.478Z,8.2
2017-12-23T01:51:21.209Z,8.2
2017-12-23T01:52:22.975Z,8.1
2017-12-23T01:53:24.717Z,8.2
2017-12-23T01:54:26.661Z,8.1
2017-12-23T01:55:28.448Z,8.1
2017-12-23T01:56:30.193Z,8.2
2017-12-23T01:57:31.919Z,8.0
2017-12-23T01:58:33.661Z,8.0
2017-12-23T01:59:35.378Z,8.0
2017-12-23T02:00:37.105Z,8.0
2017-12-23T02:01:38.870Z,7.9
2017-12-23T02:02:40.608Z,7.8
2017-12-23T02:03:42.392Z,7.9
2017-12-23T02:04:44.136Z,7.8
2017-12-23T02:05:45.940Z,7.8
2017-12-23T02:06:47.655Z,7.8
2017-12-23T02:07:49.364Z,7.9
2017-12-23T02:08:51.113Z,7.8
2017-12-23T02:09:52.856Z,7.9
2017-12-23T02:10:54.575Z,7.9
2017-12-23T02:11:56.336Z,7.9
2017-12-23T02:12:58.112Z,7.9
2017-12-23T02:13:59.806Z,8.0
2017-12-23T02:15:01.557Z,7.9
2017-12-23T02:16:03.272Z,8.0
2017-12-23T02:17:05.006Z,8.0
2017-12-23T02:18:06.769Z,7.8
2017-12-23T02:19:08.530Z,7.8
2017-12-23T02:20:10.262Z,7.8
2017-12-23T02:21:12.034Z,7.8
2017-12-23T02:22:13.848Z,7.8
2017-12-23T02:23:15.597Z,7.8
2017-12-23T02:24:17.330Z,7.8
2017-12-23T02:25:19.091Z,7.7
2017-12-23T02:26:20.858Z,7.8
2017-12-23T02:27:22.519Z,7.7
2017-12-23T02:28:24.256Z,7.8
2017-12-23T02:29:25.969Z,7.8
2017-12-23T02:30:27.681Z,7.8
2017-12-23T02:31:29.391Z,7.8
2017-12-23T02:32:31.128Z,7.8
2017-12-23T02:33:32.946Z,7.8
2017-12-23T02:34:34.778Z,7.8
2017-12-23T02:35:36.480Z,7.7
2017-12-23T02:36:38.235Z,7.7
2017-12-23T02:37:39.949Z,7.7
2017-12-23T02:38:41.737Z,7.6
2017-12-23T02:39:43.447Z,7.5
2017-12-23T02:40:45.162Z,7.4
2017-12-23T02:41:46.874Z,7.6
2017-12-23T02:42:48.607Z,7.5
2017-12-23T02:43:50.314Z,7.5
2017-12-23T02:44:52.025Z,7.5
2017-12-23T02:45:53.797Z,7.5
2017-12-23T02:46:55.506Z,7.6
2017-12-23T02:47:57.334Z,7.5
2017-12-23T02:48:59.064Z,7.6
2017-12-23T02:50:00.829Z,7.5
2017-12-23T02:51:02.567Z,7.5
2017-12-23T02:52:04.346Z,7.5
2017-12-23T02:53:06.086Z,7.5
2017-12-23T02:54:07.802Z,7.5
2017-12-23T02:55:09.564Z,7.3
2017-12-23T02:56:11.284Z,7.4
2017-12-23T02:57:13.044Z,7.4
2017-12-23T02:58:14.761Z,7.4
2017-12-23T02:59:16.544Z,7.5
2017-12-23T03:00:18.264Z,7.4
2017-12-23T03:01:19.962Z,7.4
2017-12-23T03:02:21.694Z,7.4
2017-12-23T03:03:23.418Z,7.3
2017-12-23T03:04:25.122Z,7.3
2017-12-23T03:05:26.862Z,7.4
2017-12-23T03:06:28.586Z,7.4
2017-12-23T03:07:30.325Z,7.4
2017-12-23T03:08:32.048Z,7.4
2017-12-23T03:09:33.757Z,7.4
2017-12-23T03:10:35.466Z,7.4
2017-12-23T03:11:37.164Z,7.3
2017-12-23T03:12:39.027Z,7.4
2017-12-23T03:13:40.711Z,7.4
2017-12-23T03:14:42.418Z,7.3
2017-12-23T03:15:44.113Z,7.5
2017-12-23T03:16:45.835Z,7.4
2017-12-23T03:17:47.595Z,7.5
2017-12-23T03:18:49.335Z,7.5
2017-12-23T03:19:51.037Z,7.5
2017-12-23T03:20:52.814Z,7.5
2017-12-23T03:21:54.542Z,7.5
2017-12-23T03:22:56.318Z,7.5
2017-12-23T03:23:58.019Z,7.5
2017-12-23T03:24:59.725Z,7.5
2017-12-23T03:26:01.402Z,7.5
2017-12-23T03:27:03.116Z,7.5
2017-12-23T03:28:04.797Z,7.5
2017-12-23T03:29:06.496Z,7.4
2017-12-23T03:30:08.569Z,7.4
2017-12-23T03:31:10.307Z,7.5
2017-12-23T03:32:12.035Z,7.5
2017-12-23T03:33:14.133Z,7.6
2017-12-23T03:34:15.849Z,7.5
2017-12-23T03:35:17.541Z,7.7
2017-12-23T03:36:19.273Z,7.5
2017-12-23T03:37:20.968Z,7.7
2017-12-23T03:38:22.660Z,7.6
2017-12-23T03:39:24.342Z,7.7
2017-12-23T03:40:26.055Z,7.6
2017-12-23T03:41:27.748Z,7.7
2017-12-23T03:42:29.436Z,7.7
2017-12-23T03:43:31.148Z,7.8
2017-12-23T03:44:32.848Z,7.8
2017-12-23T03:45:34.604Z,7.8
2017-12-23T03:46:36.411Z,7.9
2017-12-23T03:47:38.166Z,7.9
2017-12-23T03:48:39.942Z,7.9
2017-12-23T03:49:42.110Z,8.0
2017-12-23T03:50:43.962Z,8.0
2017-12-23T03:51:45.794Z,8.0
2017-12-23T03:52:47.628Z,8.0
2017-12-23T03:53:49.475Z,8.1
2017-12-23T03:54:51.324Z,8.2
2017-12-23T03:55:53.126Z,8.1
2017-12-23T03:56:55.080Z,8.3
2017-12-23T03:57:56.873Z,8.3
2017-12-23T03:58:58.994Z,8.2
2017-12-23T04:00:00.846Z,8.2
2017-12-23T04:01:02.659Z,8.3
2017-12-23T04:02:04.504Z,8.3
2017-12-23T04:03:06.309Z,8.3
2017-12-23T04:04:08.078Z,8.3
2017-12-23T04:05:09.885Z,8.3
2017-12-23T04:06:11.729Z,8.3
2017-12-23T04:07:13.550Z,8.3
2017-12-23T04:08:15.359Z,8.4
2017-12-23T04:09:17.212Z,8.4
2017-12-23T04:10:19.100Z,8.3
2017-12-23T04:11:20.928Z,8.3
2017-12-23T04:12:22.738Z,8.1
2017-12-23T04:13:24.505Z,8.1
2017-12-23T04:14:26.381Z,8.2
2017-12-23T04:15:28.136Z,8.0
2017-12-23T04:16:29.944Z,8.0
2017-12-23T04:17:31.750Z,7.9
2017-12-23T04:18:33.515Z,8.0
2017-12-23T04:19:35.367Z,7.9
2017-12-23T04:20:37.242Z,8.0
2017-12-23T04:21:39.032Z,8.0
2017-12-23T04:22:40.849Z,8.0
2017-12-23T04:23:42.692Z,8.1
2017-12-23T04:24:44.475Z,8.0
2017-12-23T04:25:46.270Z,8.0
2017-12-23T04:26:48.064Z,8.0
2017-12-23T04:27:50.879Z,7.9
2017-12-23T04:28:52.631Z,8.0
2017-12-23T04:29:54.396Z,8.1
2017-12-23T04:30:56.136Z,8.0
2017-12-23T04:31:57.975Z,8.0
2017-12-23T04:32:59.866Z,8.0
2017-12-23T04:34:01.641Z,8.1
2017-12-23T04:35:03.442Z,8.0
2017-12-23T04:36:05.314Z,8.0
2017-12-23T04:37:07.078Z,8.0
2017-12-23T04:38:08.864Z,8.0
2017-12-23T04:39:10.661Z,7.9
2017-12-23T04:40:12.525Z,8.0
2017-12-23T04:41:14.333Z,7.9
2017-12-23T04:42:16.112Z,7.9
2017-12-23T04:43:17.934Z,7.9
2017-12-23T04:44:19.835Z,7.9
2017-12-23T04:45:21.686Z,7.9
2017-12-23T04:46:23.524Z,8.0
2017-12-23T04:47:25.373Z,8.0
2017-12-23T04:48:27.145Z,8.0
2017-12-23T04:49:28.946Z,8.1
2017-12-23T04:50:30.756Z,8.0
2017-12-23T04:51:32.667Z,8.0
2017-12-23T04:52:34.470Z,7.9
2017-12-23T04:53:36.246Z,7.9
2017-12-23T04:54:38.079Z,7.9
2017-12-23T04:55:39.907Z,7.9
2017-12-23T04:56:41.748Z,8.0
2017-12-23T04:57:43.596Z,8.0
2017-12-23T04:58:45.419Z,8.0
2017-12-23T04:59:47.176Z,8.0
2017-12-23T05:00:48.984Z,8.1
2017-12-23T05:01:50.796Z,8.4
2017-12-23T05:02:52.581Z,8.3
2017-12-23T05:03:54.431Z,8.6
2017-12-23T05:04:56.298Z,8.6
2017-12-23T05:05:58.285Z,8.7
2017-12-23T05:07:00.111Z,8.7
2017-12-23T05:08:01.973Z,8.8
2017-12-23T05:09:03.878Z,8.7
2017-12-23T05:10:05.676Z,8.6
2017-12-23T05:11:07.401Z,8.6
2017-12-23T05:12:09.165Z,8.6
2017-12-23T05:13:10.812Z,8.5
2017-12-23T05:14:12.538Z,8.5
2017-12-23T05:15:14.245Z,8.6
2017-12-23T05:16:15.946Z,8.6
2017-12-23T05:17:17.634Z,8.5
2017-12-23T05:18:19.324Z,8.5
2017-12-23T05:19:21.019Z,8.5
2017-12-23T05:20:22.737Z,8.6
2017-12-23T05:21:24.437Z,8.6
2017-12-23T05:22:26.166Z,8.6
2017-12-23T05:23:27.852Z,8.6
2017-12-23T05:24:29.578Z,8.5
2017-12-23T05:25:38.418Z,8.6
2017-12-23T05:26:42.483Z,8.6
2017-12-23T05:27:48.141Z,8.6
2017-12-23T05:28:51.492Z,8.8
2017-12-23T05:29:53.198Z,9.1
2017-12-23T05:30:56.015Z,9.3
2017-12-23T05:31:57.686Z,9.4
2017-12-23T05:32:59.403Z,9.4
2017-12-23T05:34:01.100Z,9.3
2017-12-23T05:35:02.791Z,9.3
2017-12-23T05:36:04.502Z,9.3
2017-12-23T05:37:06.198Z,9.3
2017-12-23T05:38:07.903Z,9.3
2017-12-23T05:39:09.594Z,9.3
2017-12-23T05:40:11.286Z,9.1
2017-12-23T05:41:12.994Z,9.2
2017-12-23T05:42:14.681Z,9.1
2017-12-23T05:43:16.383Z,9.3
2017-12-23T05:44:18.082Z,9.3
2017-12-23T05:45:19.792Z,9.1
2017-12-23T05:46:21.486Z,9.1
2017-12-23T05:47:23.194Z,9.1
2017-12-23T05:48:24.900Z,9.1
2017-12-23T05:49:26.600Z,8.9
2017-12-23T05:50:28.313Z,9.0
2017-12-23T05:51:30.025Z,9.1
2017-12-23T05:52:31.715Z,9.4
2017-12-23T05:53:33.406Z,9.4
2017-12-23T05:54:35.116Z,9.4
2017-12-23T05:55:36.798Z,9.3
2017-12-23T05:56:38.478Z,9.3
2017-12-23T05:57:40.194Z,9.4
2017-12-23T05:58:41.903Z,9.7
2017-12-23T05:59:43.591Z,9.9
2017-12-23T06:00:45.279Z,9.9
2017-12-23T06:01:46.983Z,9.6
2017-12-23T06:02:48.675Z,9.4
2017-12-23T06:03:50.367Z,9.4
2017-12-23T06:04:52.075Z,9.7
2017-12-23T06:05:53.774Z,9.7
2017-12-23T06:06:55.486Z,9.7
2017-12-23T06:07:57.182Z,9.7
2017-12-23T06:08:58.966Z,9.7
2017-12-23T06:10:00.651Z,9.7
2017-12-23T06:11:02.374Z,9.5
2017-12-23T06:12:04.084Z,9.5
2017-12-23T06:13:05.791Z,9.4
2017-12-23T06:14:07.479Z,9.3
2017-12-23T06:15:09.185Z,9.3
2017-12-23T06:16:10.889Z,9.4
2017-12-23T06:17:12.586Z,9.3
2017-12-23T06:18:14.286Z,9.3
2017-12-23T06:19:15.971Z,9.2
2017-12-23T06:20:17.734Z,9.3
2017-12-23T06:21:19.417Z,9.2
2017-12-23T06:22:21.126Z,9.1
2017-12-23T06:23:22.843Z,9.1
2017-12-23T06:24:24.559Z,9.1
2017-12-23T06:25:26.245Z,9.1
2017-12-23T06:26:27.990Z,9.1
2017-12-23T06:27:29.686Z,9.0
2017-12-23T06:28:31.387Z,9.0
2017-12-23T06:29:33.110Z,8.9
2017-12-23T06:30:34.796Z,8.9
2017-12-23T06:31:36.501Z,8.9
2017-12-23T06:32:38.366Z,9.0
2017-12-23T06:33:40.042Z,9.0
2017-12-23T06:34:41.749Z,8.9
2017-12-23T06:35:43.441Z,9.0
2017-12-23T06:36:45.155Z,9.0
2017-12-23T06:37:46.878Z,8.9
2017-12-23T06:38:48.567Z,9.0
2017-12-23T06:39:50.253Z,9.0
2017-12-23T06:40:51.970Z,8.9
2017-12-23T06:41:53.696Z,8.9
2017-12-23T06:42:55.432Z,8.9
2017-12-23T06:43:57.142Z,8.9
2017-12-23T06:44:58.845Z,9.0
2017-12-23T06:46:00.581Z,8.9
2017-12-23T06:47:02.277Z,9.0
2017-12-23T06:48:04.001Z,8.9
2017-12-23T06:49:05.726Z,8.9
2017-12-23T06:50:07.437Z,8.9
2017-12-23T06:51:09.138Z,8.9
2017-12-23T06:52:10.860Z,8.9
2017-12-23T06:53:12.571Z,8.9
2017-12-23T06:54:14.247Z,8.9
2017-12-23T06:55:15.942Z,8.9
2017-12-23T06:56:17.680Z,9.0
2017-12-23T06:57:19.383Z,9.0
2017-12-23T06:58:21.082Z,9.0
2017-12-23T06:59:22.782Z,9.0
2017-12-23T07:00:24.466Z,9.1
2017-12-23T07:01:26.175Z,9.4
2017-12-23T07:02:27.888Z,9.5
2017-12-23T07:03:29.610Z,9.7
2017-12-23T07:04:31.324Z,9.9
2017-12-23T07:05:33.014Z,10.0
2017-12-23T07:06:34.712Z,10.3
2017-12-23T07:07:36.403Z,10.4
2017-12-23T07:08:38.155Z,10.4
2017-12-23T07:09:39.879Z,10.1
2017-12-23T07:10:41.597Z,9.9
2017-12-23T07:11:43.319Z,9.6
2017-12-23T07:12:45.031Z,9.4
2017-12-23T07:13:46.751Z,9.4
2017-12-23T07:14:48.467Z,9.3
2017-12-23T07:15:50.167Z,9.3
2017-12-23T07:16:51.897Z,9.4
2017-12-23T07:17:53.576Z,9.4
2017-12-23T07:18:55.276Z,9.6
2017-12-23T07:19:56.968Z,9.9
2017-12-23T07:20:58.706Z,10.2
2017-12-23T07:22:00.491Z,10.5
2017-12-23T07:23:02.207Z,10.7
2017-12-23T07:24:03.925Z,11.0
2017-12-23T07:25:05.607Z,11.2
2017-12-23T07:26:07.311Z,11.3
2017-12-23T07:27:08.998Z,11.4
2017-12-23T07:28:10.701Z,11.5
2017-12-23T07:29:12.394Z,11.5
2017-12-23T07:30:14.079Z,11.5
2017-12-23T07:31:15.782Z,11.6
2017-12-23T07:32:17.494Z,11.6
2017-12-23T07:33:19.200Z,11.7
2017-12-23T07:34:20.906Z,11.7
2017-12-23T07:35:22.590Z,11.7
2017-12-23T07:36:24.306Z,11.5
2017-12-23T07:37:26.045Z,11.5
2017-12-23T07:38:27.748Z,11.8
2017-12-23T07:39:29.459Z,12.0
2017-12-23T07:40:31.153Z,11.9
2017-12-23T07:41:32.855Z,12.0
2017-12-23T07:42:34.607Z,12.0
2017-12-23T07:43:36.258Z,12.0
2017-12-23T07:44:37.962Z,12.0
2017-12-23T07:45:39.649Z,12.0
2017-12-23T07:46:41.379Z,12.1
2017-12-23T07:47:43.133Z,12.1
2017-12-23T07:48:44.831Z,12.2
2017-12-23T07:49:46.522Z,12.3
2017-12-23T07:50:48.250Z,12.4
2017-12-23T07:51:50.659Z,12.4
2017-12-23T07:52:52.375Z,12.4
2017-12-23T07:53:54.083Z,12.5
2017-12-23T07:54:55.810Z,12.5
2017-12-23T07:55:57.514Z,12.5
2017-12-23T07:56:59.226Z,12.4
2017-12-23T07:58:01.008Z,12.3
2017-12-23T07:59:02.808Z,12.3
2017-12-23T08:00:04.516Z,12.4
2017-12-23T08:01:06.250Z,12.3
2017-12-23T08:02:07.959Z,12.4
2017-12-23T08:03:09.693Z,12.5
2017-12-23T08:04:11.419Z,12.4
2017-12-23T08:05:13.152Z,12.6
2017-12-23T08:06:14.904Z,12.5
2017-12-23T08:07:16.642Z,12.5
2017-12-23T08:08:18.347Z,12.5
2017-12-23T08:09:20.065Z,12.6
2017-12-23T08:10:21.790Z,12.7
2017-12-23T08:11:23.471Z,12.6
2017-12-23T08:12:25.189Z,12.6
2017-12-23T08:13:26.933Z,12.6
2017-12-23T08:14:28.667Z,12.7
2017-12-23T08:15:30.377Z,12.7
2017-12-23T08:16:32.154Z,12.8
2017-12-23T08:17:33.922Z,12.8
2017-12-23T08:18:35.653Z,12.9
2017-12-23T08:19:37.352Z,12.8
2017-12-23T08:20:39.067Z,12.8
2017-12-23T08:21:40.798Z,12.8
2017-12-23T08:22:42.503Z,12.9
2017-12-23T08:23:44.216Z,12.8
2017-12-23T08:24:45.940Z,12.9
2017-12-23T08:25:47.642Z,12.9
2017-12-23T08:26:49.389Z,12.8
2017-12-23T08:27:51.107Z,12.8
2017-12-23T08:28:52.822Z,12.7
2017-12-23T08:29:54.515Z,12.8
2017-12-23T08:30:56.231Z,12.8
2017-12-23T08:31:57.940Z,12.8
2017-12-23T08:32:59.677Z,12.9
2017-12-23T08:34:01.414Z,12.9
2017-12-23T08:35:03.158Z,13.0
2017-12-23T08:36:04.884Z,13.0
2017-12-23T08:37:06.607Z,12.9
2017-12-23T08:38:08.335Z,12.9
2017-12-23T08:39:10.053Z,12.8
2017-12-23T08:40:11.771Z,13.0
2017-12-23T08:41:13.481Z,13.0
2017-12-23T08:42:15.248Z,13.0
2017-12-23T08:43:16.985Z,13.0
2017-12-23T08:44:18.724Z,13.0
2017-12-23T08:45:20.451Z,13.0
2017-12-23T08:46:22.188Z,13.1
2017-12-23T08:47:23.928Z,13.1
2017-12-23T08:48:25.661Z,13.1
2017-12-23T08:49:27.384Z,13.1
2017-12-23T08:50:29.126Z,13.2
2017-12-23T08:51:30.864Z,13.2
2017-12-23T08:52:32.603Z,13.2
2017-12-23T08:53:34.664Z,13.2
2017-12-23T08:54:36.190Z,13.2
2017-12-23T08:55:37.924Z,13.3
2017-12-23T08:56:39.705Z,13.3
2017-12-23T08:57:41.442Z,13.3
2017-12-23T08:58:43.160Z,13.3
2017-12-23T08:59:44.988Z,13.3
2017-12-23T09:00:46.726Z,13.3
2017-12-23T09:01:48.443Z,13.4
2017-12-23T09:02:50.163Z,13.3
2017-12-23T09:03:51.935Z,13.4
2017-12-23T09:04:53.646Z,13.4
2017-12-23T09:05:55.377Z,13.4
2017-12-23T09:06:57.110Z,13.4
2017-12-23T09:07:58.830Z,13.5
2017-12-23T09:09:00.543Z,13.4
2017-12-23T09:10:02.281Z,13.4
2017-12-23T09:11:04.008Z,13.5
2017-12-23T09:12:05.713Z,13.6
2017-12-23T09:13:07.451Z,13.6
2017-12-23T09:14:09.200Z,13.7
2017-12-23T09:15:12.176Z,13.6
2017-12-23T09:16:14.666Z,13.8
2017-12-23T09:17:16.413Z,13.8
2017-12-23T09:18:18.150Z,13.8
2017-12-23T09:19:19.871Z,13.8
2017-12-23T09:20:21.619Z,13.9
2017-12-23T09:21:23.331Z,13.8
2017-12-23T09:22:25.052Z,14.0
2017-12-23T09:23:26.800Z,14.0
2017-12-23T09:24:28.526Z,14.0
2017-12-23T09:25:30.269Z,14.0
2017-12-23T09:26:32.011Z,14.0
2017-12-23T09:27:33.758Z,14.0
2017-12-23T09:28:35.504Z,14.0
2017-12-23T09:29:37.250Z,14.0
2017-12-23T09:30:38.977Z,14.1
2017-12-23T09:31:40.765Z,14.2
2017-12-23T09:32:42.523Z,14.3
2017-12-23T09:33:44.285Z,14.3
2017-12-23T09:34:46.020Z,14.5
2017-12-23T09:35:47.759Z,14.6
2017-12-23T09:36:49.518Z,14.6
2017-12-23T09:37:51.266Z,14.7
2017-12-23T09:38:52.977Z,14.8
2017-12-23T09:39:54.771Z,14.9
2017-12-23T09:40:56.593Z,15.0
2017-12-23T09:41:58.311Z,15.4
2017-12-23T09:43:00.072Z,16.2
2017-12-23T09:44:01.835Z,17.1
2017-12-23T09:45:03.596Z,17.8
2017-12-23T09:46:05.361Z,18.5
2017-12-23T09:47:07.133Z,19.1
2017-12-23T09:48:08.883Z,19.6
2017-12-23T09:49:10.598Z,20.1
2017-12-23T09:50:12.312Z,20.8
2017-12-23T09:51:14.061Z,20.7
2017-12-23T09:52:15.768Z,21.6
2017-12-23T09:53:17.490Z,21.8
2017-12-23T09:54:19.619Z,21.6
2017-12-23T09:55:21.362Z,21.5
2017-12-23T09:56:23.098Z,20.8
2017-12-23T09:57:24.859Z,21.6
2017-12-23T09:58:26.617Z,20.3
2017-12-23T09:59:28.359Z,20.3
2017-12-23T10:00:30.102Z,21.5
2017-12-23T10:01:31.840Z,21.9
2017-12-23T10:02:33.659Z,22.3
2017-12-23T10:03:35.406Z,20.7
2017-12-23T10:04:37.128Z,21.2
2017-12-23T10:05:38.855Z,20.5
2017-12-23T10:06:40.573Z,20.6
2017-12-23T10:07:42.329Z,21.0
2017-12-23T10:08:44.283Z,21.6
2017-12-23T10:09:46.028Z,21.8
2017-12-23T10:10:47.973Z,22.1
2017-12-23T10:11:49.724Z,22.6
2017-12-23T10:12:51.462Z,22.4
2017-12-23T10:13:53.214Z,22.3
2017-12-23T21:19:45.624Z,12.4
2017-12-23T21:20:47.358Z,12.3
2017-12-23T21:21:49.095Z,12.4
2017-12-23T21:22:50.841Z,12.4
2017-12-23T21:23:52.644Z,12.4
2017-12-23T21:24:54.357Z,12.4
2017-12-23T21:25:56.083Z,12.4
2017-12-23T21:26:57.802Z,12.4
2017-12-23T21:27:59.579Z,12.4
2017-12-23T21:29:01.467Z,12.2
2017-12-23T21:30:03.218Z,12.3
2017-12-23T21:31:04.945Z,12.3
2017-12-23T21:32:06.701Z,12.3
2017-12-23T21:33:08.452Z,12.2
2017-12-23T21:34:10.227Z,12.3
2017-12-23T21:35:11.939Z,12.2
2017-12-23T21:36:13.786Z,12.2
2017-12-23T21:37:16.396Z,12.1
2017-12-23T21:38:18.009Z,12.1
2017-12-23T21:39:19.962Z,12.1
2017-12-23T21:40:21.729Z,12.1
2017-12-23T21:41:23.470Z,12.1
2017-12-23T21:42:25.205Z,12.1
2017-12-23T21:43:26.997Z,12.1
2017-12-23T21:44:28.702Z,12.1
2017-12-23T21:45:30.411Z,12.1
2017-12-23T21:46:33.122Z,12.1
2017-12-23T21:47:34.899Z,12.1
2017-12-23T21:48:36.742Z,12.0
2017-12-23T21:49:38.500Z,12.0
2017-12-23T21:50:40.237Z,12.0
2017-12-23T21:51:41.957Z,12.0
2017-12-23T21:52:43.676Z,11.9
2017-12-23T21:53:45.391Z,12.0
2017-12-23T21:54:47.117Z,12.0
2017-12-23T21:55:48.886Z,12.0
2017-12-23T21:56:50.602Z,11.9
2017-12-23T21:57:52.367Z,11.9
2017-12-23T21:58:54.199Z,11.9
2017-12-23T21:59:56.451Z,12.0
2017-12-23T22:00:58.231Z,11.9
2017-12-23T22:01:59.960Z,12.0
2017-12-23T22:03:02.097Z,11.9
2017-12-23T22:04:03.844Z,11.8
2017-12-23T22:05:05.575Z,11.8
2017-12-23T22:06:08.170Z,11.9
2017-12-23T22:07:09.976Z,11.8
2017-12-23T22:08:11.698Z,11.9
2017-12-23T22:09:13.448Z,11.8
2017-12-23T22:10:15.176Z,11.8
2017-12-23T22:11:16.942Z,11.7
2017-12-23T22:12:18.668Z,11.9
2017-12-23T22:13:20.433Z,11.7
2017-12-23T22:14:22.208Z,11.7
2017-12-23T22:15:23.996Z,11.7
2017-12-23T22:16:25.867Z,11.7
2017-12-23T22:17:27.732Z,11.7
2017-12-23T22:18:29.544Z,11.7
2017-12-23T22:19:31.263Z,11.7
2017-12-23T22:20:33.090Z,11.7
2017-12-23T22:21:34.882Z,11.7
2017-12-23T22:22:36.831Z,11.7
2017-12-23T22:23:38.812Z,11.5
2017-12-23T22:24:40.647Z,11.6
2017-12-23T22:25:42.457Z,11.6
2017-12-23T22:26:44.352Z,11.6
2017-12-23T22:27:46.157Z,11.6
2017-12-23T22:28:47.970Z,11.6
2017-12-23T22:29:49.774Z,11.5
2017-12-23T22:30:51.527Z,11.5
2017-12-23T22:31:53.277Z,11.5
2017-12-23T22:32:55.022Z,11.5
2017-12-23T22:33:56.752Z,11.5
2017-12-23T22:34:58.771Z,11.5
2017-12-23T22:36:00.486Z,11.5
2017-12-23T22:37:02.211Z,11.4
2017-12-23T22:38:03.939Z,11.5
2017-12-23T22:39:05.663Z,11.5
2017-12-23T22:40:07.370Z,11.4
2017-12-23T22:41:09.094Z,11.4
2017-12-23T22:42:10.936Z,11.5
2017-12-23T22:43:12.633Z,11.4
2017-12-23T22:44:14.346Z,11.5
2017-12-23T22:45:16.050Z,11.4
2017-12-23T22:46:17.766Z,11.4
2017-12-23T22:47:19.488Z,11.4
2017-12-23T22:48:21.184Z,11.4
2017-12-23T22:49:22.879Z,11.3
2017-12-23T22:50:24.604Z,11.4
2017-12-23T22:51:26.327Z,11.5
2017-12-23T22:52:28.049Z,11.4
2017-12-23T22:53:29.746Z,11.4
2017-12-23T22:54:31.449Z,11.4
2017-12-23T22:55:33.156Z,11.4
2017-12-23T22:56:34.946Z,11.4
2017-12-23T22:57:36.679Z,11.4
2017-12-23T22:58:38.406Z,11.3
2017-12-23T22:59:40.121Z,11.4
2017-12-23T23:00:41.839Z,11.4
2017-12-23T23:01:43.542Z,11.4
2017-12-23T23:02:45.280Z,11.3
2017-12-23T23:03:46.981Z,11.3
2017-12-23T23:04:48.696Z,11.3
2017-12-23T23:05:50.395Z,11.3
2017-12-23T23:06:52.195Z,11.3
2017-12-23T23:07:53.939Z,11.3
2017-12-23T23:08:55.677Z,11.2
2017-12-23T23:09:57.437Z,11.2
2017-12-23T23:10:59.209Z,11.2
2017-12-23T23:12:01.114Z,11.2
2017-12-23T23:13:02.829Z,11.3
2017-12-23T23:14:04.541Z,11.2
2017-12-23T23:15:06.364Z,11.2
2017-12-23T23:16:08.088Z,11.2
2017-12-23T23:17:09.805Z,11.2
2017-12-23T23:18:11.571Z,11.1
2017-12-23T23:19:13.293Z,11.1
2017-12-23T23:20:15.003Z,11.2
2017-12-23T23:21:16.762Z,11.1
2017-12-23T23:22:18.474Z,11.2
2017-12-23T23:23:20.198Z,11.1
2017-12-23T23:24:21.903Z,11.1
2017-12-23T23:25:23.629Z,11.2
2017-12-23T23:26:25.345Z,11.1
2017-12-23T23:27:27.081Z,11.1
2017-12-23T23:28:28.798Z,11.1
2017-12-23T23:29:30.549Z,11.1
2017-12-23T23:30:32.302Z,11.1
2017-12-23T23:31:34.038Z,11.1
2017-12-23T23:32:36.175Z,11.0
2017-12-23T23:33:37.917Z,11.1
2017-12-23T23:34:39.651Z,11.1
2017-12-23T23:35:41.376Z,11.1
2017-12-23T23:36:43.099Z,11.1
2017-12-23T23:37:44.865Z,10.9
2017-12-23T23:38:46.642Z,11.1
2017-12-23T23:39:48.366Z,11.0
2017-12-23T23:40:50.087Z,11.0
2017-12-23T23:41:51.865Z,11.0
2017-12-23T23:42:53.579Z,11.0
2017-12-23T23:43:55.300Z,11.0
2017-12-23T23:44:57.086Z,11.0
2017-12-23T23:45:58.824Z,11.0
2017-12-23T23:47:00.544Z,11.0
2017-12-23T23:48:02.281Z,11.1
2017-12-23T23:49:04.011Z,11.0
2017-12-23T23:50:05.752Z,11.0
2017-12-23T23:51:07.520Z,11.0
2017-12-23T23:52:09.264Z,11.0
2017-12-23T23:53:10.947Z,11.0
2017-12-23T23:54:13.039Z,11.1
2017-12-23T23:55:14.807Z,11.0
2017-12-23T23:56:16.610Z,11.0
2017-12-23T23:57:18.379Z,11.0
2017-12-23T23:58:20.186Z,11.0
2017-12-23T23:59:21.946Z,11.1
